Time;durP1;ratioP1;P1;durP2;ratioP2;P2;SDS_P1;SDS_P2;PMS_P1;PMS_P2;Temp;Humidity;BMP_temperature;BMP_pressure;BME280_temperature;BME280_humidity;BME280_pressure;Samples;Min_cycle;Max_cycle;Signal;HPM_P1;HPM_P2
2024/03/13 00:00:42;;;;;;;41.72;21.90;;;5.80;99.90;;;;;;4991750;28;20085;-71
2024/03/13 00:03:10;;;;;;;35.17;19.20;;;5.80;99.90;;;;;;4991794;28;20058;-71
2024/03/13 00:05:38;;;;;;;65.68;35.08;;;5.80;99.90;;;;;;4992807;28;20422;-70
2024/03/13 00:08:07;;;;;;;56.58;25.83;;;5.70;99.90;;;;;;4991799;28;20042;-71
2024/03/13 00:10:34;;;;;;;56.50;28.10;;;5.70;99.90;;;;;;5007617;28;20408;-71
2024/03/13 00:13:01;;;;;;;19.48;11.25;;;5.70;99.90;;;;;;4991842;28;20061;-71
2024/03/13 00:15:28;;;;;;;59.05;29.63;;;5.70;99.90;;;;;;4992802;28;20046;-71
2024/03/13 00:17:55;;;;;;;44.00;23.40;;;5.70;99.90;;;;;;5024459;28;20034;-71
2024/03/13 00:20:22;;;;;;;56.53;29.50;;;5.70;99.90;;;;;;4991441;28;20467;-71
2024/03/13 00:22:50;;;;;;;61.65;28.58;;;5.70;99.90;;;;;;4992965;28;20050;-71
2024/03/13 00:25:17;;;;;;;54.30;27.67;;;5.70;99.90;;;;;;4992613;28;20050;-71
2024/03/13 00:27:46;;;;;;;54.67;26.42;;;5.70;99.90;;;;;;5028000;28;20093;-71
2024/03/13 00:30:15;;;;;;;43.15;23.52;;;5.80;99.90;;;;;;4996813;28;20096;-71
2024/03/13 00:32:43;;;;;;;56.67;28.27;;;5.80;99.90;;;;;;4995336;28;20511;-71
2024/03/13 00:35:13;;;;;;;46.05;25.38;;;5.80;99.90;;;;;;4995611;28;20038;-71
2024/03/13 00:37:40;;;;;;;36.67;21.98;;;5.80;99.90;;;;;;4996241;28;20480;-71
2024/03/13 00:40:09;;;;;;;56.28;28.77;;;5.80;99.90;;;;;;4995445;28;20042;-71
2024/03/13 00:42:36;;;;;;;51.67;22.50;;;5.80;99.90;;;;;;4996407;28;20045;-71
2024/03/13 00:45:03;;;;;;;55.95;28.70;;;5.80;99.90;;;;;;4979085;28;20519;-71
2024/03/13 00:47:31;;;;;;;46.70;25.40;;;5.80;99.90;;;;;;4995080;28;20046;-71
2024/03/13 00:49:58;;;;;;;45.22;23.00;;;5.80;99.90;;;;;;4995547;28;20066;-72
2024/03/13 00:52:27;;;;;;;46.33;23.92;;;5.80;99.90;;;;;;4994904;28;20542;-71
2024/03/13 00:54:54;;;;;;;55.17;26.67;;;5.80;99.90;;;;;;4996343;28;20042;-71
2024/03/13 00:57:22;;;;;;;47.00;27.45;;;5.80;99.90;;;;;;4994985;28;20046;-71
2024/03/13 00:59:49;;;;;;;52.28;27.88;;;5.80;99.90;;;;;;4979109;28;20046;-71
2024/03/13 01:02:16;;;;;;;63.90;34.17;;;5.90;99.90;;;;;;4979049;28;20050;-71
2024/03/13 01:04:44;;;;;;;25.92;14.02;;;6.00;99.90;;;;;;5027521;28;20050;-71
2024/03/13 01:07:12;;;;;;;53.60;26.00;;;6.00;99.90;;;;;;4995020;28;20042;-71
2024/03/13 01:09:39;;;;;;;32.78;17.58;;;6.00;99.90;;;;;;4995969;28;20050;-71
2024/03/13 01:12:06;;;;;;;57.65;29.40;;;5.90;99.90;;;;;;4995043;28;20093;-71
2024/03/13 01:14:34;;;;;;;42.88;21.85;;;5.90;99.90;;;;;;5027153;28;20459;-72
2024/03/13 01:17:02;;;;;;;51.75;27.83;;;5.90;99.90;;;;;;4994744;28;20058;-72
2024/03/13 01:19:34;;;;;;;56.35;32.00;;;5.80;99.90;;;;;;5010464;28;20459;-71
2024/03/13 01:22:12;;;;;;;46.17;24.42;;;5.80;99.90;;;;;;4994635;28;20042;-71
2024/03/13 01:24:42;;;;;;;52.45;26.52;;;5.90;99.90;;;;;;4994750;28;20078;-71
2024/03/13 01:27:10;;;;;;;52.58;29.05;;;5.80;99.90;;;;;;4994540;28;20142;-71
2024/03/13 01:29:41;;;;;;;39.90;17.50;;;5.80;99.90;;;;;;5027073;28;20089;-72
2024/03/13 01:32:09;;;;;;;39.75;22.80;;;5.80;99.90;;;;;;4994441;28;20451;-71
2024/03/13 01:34:36;;;;;;;67.78;31.45;;;5.90;99.90;;;;;;4978140;28;20495;-71
2024/03/13 01:39:51;;;;;;;35.78;21.02;;;6.00;99.90;;;;;;4995538;28;20050;-71
2024/03/13 01:56:22;;;;;;;44.28;25.63;;;6.40;99.90;;;;;;4994026;28;20047;-71
2024/03/13 01:58:52;;;;;;;59.00;32.83;;;6.50;99.90;;;;;;4994947;28;20424;-71
2024/03/13 02:04:24;;;;;;;47.92;24.33;;;6.60;99.90;;;;;;4957269;28;20124;-71
2024/03/13 02:06:51;;;;;;;43.35;28.38;;;6.70;99.90;;;;;;4973214;28;20195;-71
2024/03/13 02:09:22;;;;;;;47.75;25.17;;;6.70;99.90;;;;;;4941335;28;20054;-71
2024/03/13 02:11:49;;;;;;;54.83;25.83;;;6.70;99.90;;;;;;4994729;28;20069;-71
2024/03/13 02:14:16;;;;;;;41.30;22.58;;;6.70;99.90;;;;;;4993623;28;20042;-71
2024/03/13 02:16:51;;;;;;;32.25;18.52;;;6.70;99.90;;;;;;4994709;28;20105;-71
2024/03/13 02:19:19;;;;;;;47.55;24.73;;;6.70;99.90;;;;;;4993675;28;20046;-71
2024/03/13 02:21:47;;;;;;;45.70;26.90;;;6.70;99.90;;;;;;5009524;28;20466;-71
2024/03/13 02:24:14;;;;;;;41.53;21.83;;;6.80;99.90;;;;;;4993432;28;20116;-71
2024/03/13 02:26:41;;;;;;;47.75;26.65;;;6.80;99.90;;;;;;4977146;28;20100;-71
2024/03/13 02:29:08;;;;;;;52.92;25.98;;;6.80;99.90;;;;;;4994735;28;20093;-71
2024/03/13 02:31:36;;;;;;;42.78;24.65;;;6.80;99.90;;;;;;5025882;28;20050;-71
2024/03/13 02:34:04;;;;;;;43.47;22.27;;;6.80;99.90;;;;;;4994375;28;20054;-71
2024/03/13 02:36:32;;;;;;;49.42;26.38;;;6.80;99.90;;;;;;4994427;28;20416;-71
2024/03/13 02:39:00;;;;;;;51.60;25.75;;;6.80;99.90;;;;;;4992922;28;20153;-71
2024/03/13 02:41:28;;;;;;;45.75;22.00;;;6.90;99.90;;;;;;4994353;28;20042;-71
2024/03/13 02:43:57;;;;;;;35.70;19.25;;;6.90;99.90;;;;;;4994625;28;20034;-71
2024/03/13 02:46:25;;;;;;;50.25;24.58;;;7.00;99.90;;;;;;5025667;28;20105;-71
2024/03/13 02:48:52;;;;;;;48.83;25.42;;;7.00;99.90;;;;;;4993539;28;20047;-71
2024/03/13 02:51:20;;;;;;;48.00;24.27;;;7.00;99.90;;;;;;4993253;28;20050;-71
2024/03/13 02:53:48;;;;;;;58.08;33.75;;;7.00;99.90;;;;;;4993923;28;20492;-71
2024/03/13 02:56:15;;;;;;;50.38;26.35;;;7.00;99.90;;;;;;4992873;28;20057;-71
2024/03/13 02:58:45;;;;;;;31.88;18.20;;;7.00;99.90;;;;;;4993848;28;20046;-71
2024/03/13 03:01:12;;;;;;;45.42;22.23;;;7.00;99.90;;;;;;4994112;28;20081;-71
2024/03/13 03:03:39;;;;;;;48.78;26.60;;;7.00;99.90;;;;;;5025388;28;20459;-71
2024/03/13 03:06:07;;;;;;;50.40;30.13;;;7.00;99.90;;;;;;4992717;28;20388;-71
2024/03/13 03:08:37;;;;;;;50.85;28.50;;;7.10;99.90;;;;;;4993941;28;20407;-71
2024/03/13 03:11:04;;;;;;;42.22;19.60;;;7.10;99.90;;;;;;5025081;28;20093;-71
2024/03/13 03:13:32;;;;;;;39.53;18.40;;;7.00;99.90;;;;;;4992639;28;20480;-71
2024/03/13 03:15:59;;;;;;;56.60;28.80;;;7.00;99.90;;;;;;4993755;28;20121;-71
2024/03/13 03:18:27;;;;;;;41.60;20.40;;;7.00;99.90;;;;;;4992586;28;20053;-71
2024/03/13 03:20:54;;;;;;;47.65;24.48;;;7.00;99.90;;;;;;4975926;28;20046;-71
2024/03/13 03:23:21;;;;;;;39.83;18.38;;;7.00;99.90;;;;;;4992615;28;20034;-71
2024/03/13 03:25:48;;;;;;;41.67;21.38;;;7.10;99.90;;;;;;4993389;28;20039;-71
2024/03/13 03:28:16;;;;;;;46.53;24.85;;;7.10;99.90;;;;;;4992113;28;20043;-71
2024/03/13 03:30:46;;;;;;;42.45;25.50;;;7.10;99.90;;;;;;4993458;28;20042;-71
2024/03/13 03:33:13;;;;;;;49.20;21.67;;;7.10;99.90;;;;;;4993602;28;20054;-71
2024/03/13 03:35:41;;;;;;;43.67;19.00;;;7.10;99.90;;;;;;4992321;28;20189;-71
2024/03/13 03:38:08;;;;;;;15.13;11.95;;;7.10;99.90;;;;;;4991970;28;20066;-71
2024/03/13 03:40:35;;;;;;;41.40;21.63;;;7.10;99.90;;;;;;5024882;28;20042;-71
2024/03/13 03:43:03;;;;;;;36.63;18.17;;;7.10;99.90;;;;;;4992005;28;20034;-71
2024/03/13 03:45:31;;;;;;;31.88;19.48;;;7.20;99.90;;;;;;5024561;28;20077;-71
2024/03/13 03:47:58;;;;;;;37.55;23.20;;;7.20;99.90;;;;;;4993378;28;20428;-71
2024/03/13 03:50:31;;;;;;;42.92;25.02;;;7.20;99.90;;;;;;5007385;28;20092;-71
2024/03/13 03:52:58;;;;;;;46.42;23.52;;;7.20;99.90;;;;;;4991770;28;20042;-71
2024/03/13 03:55:25;;;;;;;45.15;22.65;;;7.30;99.90;;;;;;4991911;28;20058;-71
2024/03/13 03:57:53;;;;;;;38.90;24.00;;;7.30;99.90;;;;;;5024191;28;20042;-71
2024/03/13 04:00:22;;;;;;;33.53;17.23;;;7.30;99.90;;;;;;4973710;28;20042;-71
2024/03/13 04:02:51;;;;;;;38.28;18.52;;;7.30;99.90;;;;;;4986301;28;20066;-71
2024/03/13 04:05:19;;;;;;;43.67;22.95;;;7.30;99.90;;;;;;5003477;28;20046;-71
2024/03/13 04:07:49;;;;;;;43.92;21.38;;;7.30;99.90;;;;;;5003588;28;20058;-71
2024/03/13 04:10:16;;;;;;;42.25;20.48;;;7.40;99.90;;;;;;5004691;28;20043;-71
2024/03/13 04:12:44;;;;;;;46.70;27.98;;;7.40;99.90;;;;;;5004973;28;20400;-71
2024/03/13 04:15:12;;;;;;;28.70;16.08;;;7.40;99.90;;;;;;5004222;28;20066;-71
2024/03/13 04:17:40;;;;;;;25.60;16.27;;;7.40;99.90;;;;;;4973610;28;20171;-71
2024/03/13 04:20:18;;;;;;;28.15;14.05;;;7.40;99.90;;;;;;4973311;28;20101;-71
2024/03/13 04:22:45;;;;;;;38.47;19.92;;;7.40;99.90;;;;;;4973572;28;20113;-71
2024/03/13 04:25:14;;;;;;;48.67;23.50;;;7.40;99.90;;;;;;4973409;28;20043;-71
2024/03/13 04:27:42;;;;;;;20.42;11.18;;;7.40;99.90;;;;;;4987885;28;20047;-71
2024/03/13 04:30:09;;;;;;;29.42;15.13;;;7.50;99.90;;;;;;5004300;28;20101;-71
2024/03/13 04:32:36;;;;;;;35.03;18.20;;;7.50;99.90;;;;;;4988157;28;20073;-71
2024/03/13 04:35:04;;;;;;;34.28;17.65;;;7.50;99.90;;;;;;4973166;28;20047;-71
2024/03/13 04:37:31;;;;;;;23.48;12.23;;;7.50;99.90;;;;;;5004398;28;20113;-71
2024/03/13 04:39:59;;;;;;;39.10;19.17;;;7.50;99.90;;;;;;4973317;28;20530;-71
2024/03/13 04:42:27;;;;;;;32.92;20.80;;;7.50;99.90;;;;;;4973346;28;20035;-71
2024/03/13 04:44:55;;;;;;;33.80;18.02;;;7.60;99.90;;;;;;4973215;28;20058;-71
2024/03/13 04:47:23;;;;;;;37.47;23.45;;;7.50;99.90;;;;;;5004521;28;20401;-71
2024/03/13 04:49:50;;;;;;;41.33;24.02;;;7.60;99.90;;;;;;5004945;28;20113;-71
2024/03/13 04:52:18;;;;;;;44.33;23.15;;;7.50;99.90;;;;;;4973131;28;20453;-71
2024/03/13 04:54:45;;;;;;;45.13;25.52;;;7.50;99.90;;;;;;4971929;28;20050;-71
2024/03/13 04:57:12;;;;;;;50.83;30.70;;;7.50;99.90;;;;;;4971769;28;20057;-71
2024/03/13 04:59:39;;;;;;;46.88;29.42;;;7.50;99.90;;;;;;5004304;28;20370;-71
2024/03/13 05:02:07;;;;;;;51.95;23.85;;;7.50;99.90;;;;;;4987820;28;20074;-72
2024/03/13 05:04:35;;;;;;;41.47;24.15;;;7.50;99.90;;;;;;4973211;28;20035;-71
2024/03/13 05:07:02;;;;;;;35.13;20.05;;;7.50;99.90;;;;;;5003843;28;20114;-71
2024/03/13 05:09:29;;;;;;;35.55;19.67;;;7.50;99.90;;;;;;4973131;28;20042;-71
2024/03/13 05:11:57;;;;;;;40.45;21.08;;;7.50;99.90;;;;;;4973597;28;20043;-71
2024/03/13 05:14:24;;;;;;;37.72;20.73;;;7.50;99.90;;;;;;4976852;28;20060;-71
2024/03/13 05:16:51;;;;;;;33.88;18.00;;;7.50;99.90;;;;;;4991354;28;20053;-71
2024/03/13 05:19:19;;;;;;;40.88;21.63;;;7.40;99.90;;;;;;5007344;28;20109;-71
2024/03/13 05:21:46;;;;;;;36.72;20.88;;;7.50;99.90;;;;;;4976434;28;20034;-71
2024/03/13 05:24:13;;;;;;;35.28;18.65;;;7.40;99.90;;;;;;4974972;28;20050;-71
2024/03/13 05:26:44;;;;;;;32.38;18.17;;;7.50;99.90;;;;;;5007314;28;20517;-71
2024/03/13 05:29:11;;;;;;;35.40;19.52;;;7.40;99.90;;;;;;5007437;28;20035;-71
2024/03/13 05:31:38;;;;;;;31.48;19.90;;;7.50;99.90;;;;;;4975089;28;20448;-71
2024/03/13 05:34:05;;;;;;;44.72;22.08;;;7.50;99.90;;;;;;4990937;28;20507;-71
2024/03/13 05:36:32;;;;;;;36.17;18.70;;;7.50;99.90;;;;;;5007155;28;20094;-70
2024/03/13 05:39:00;;;;;;;35.42;20.23;;;7.50;99.90;;;;;;4976147;28;20552;-71
2024/03/13 05:41:27;;;;;;;37.28;19.33;;;7.50;99.90;;;;;;5007304;28;20039;-71
2024/03/13 05:43:54;;;;;;;43.80;19.75;;;7.50;99.90;;;;;;5007390;28;20072;-71
2024/03/13 05:46:22;;;;;;;44.67;21.85;;;7.40;99.90;;;;;;4990508;28;20058;-71
2024/03/13 05:48:49;;;;;;;51.15;21.90;;;7.40;99.90;;;;;;5007064;28;20038;-71
2024/03/13 05:51:17;;;;;;;48.05;30.38;;;7.40;99.90;;;;;;4990463;28;20447;-70
2024/03/13 05:53:44;;;;;;;42.53;19.38;;;7.40;99.90;;;;;;4975861;28;20041;-71
2024/03/13 05:56:12;;;;;;;48.60;22.95;;;7.40;99.90;;;;;;4975676;28;20047;-71
2024/03/13 05:58:41;;;;;;;56.10;25.90;;;7.40;99.90;;;;;;4974464;28;20057;-71
2024/03/13 06:01:12;;;;;;;47.80;23.95;;;7.40;99.90;;;;;;4983238;28;20050;-71
2024/03/13 06:03:39;;;;;;;45.08;20.50;;;7.40;99.90;;;;;;5006316;28;20510;-71
2024/03/13 06:06:06;;;;;;;39.03;18.90;;;7.40;99.90;;;;;;5009131;28;20039;-71
2024/03/13 06:08:34;;;;;;;47.55;21.05;;;7.40;99.90;;;;;;4994837;28;20046;-71
2024/03/13 06:11:01;;;;;;;30.60;16.40;;;7.50;99.90;;;;;;5010072;28;20124;-72
2024/03/13 06:13:29;;;;;;;36.53;17.13;;;7.50;99.90;;;;;;4994793;28;20042;-71
2024/03/13 06:15:56;;;;;;;38.75;17.25;;;7.50;99.90;;;;;;5009929;28;20056;-71
2024/03/13 06:18:24;;;;;;;38.30;23.73;;;7.50;99.90;;;;;;4994999;28;20888;-72
2024/03/13 06:20:50;;;;;;;31.80;17.02;;;7.50;99.90;;;;;;4994936;28;20615;-71
2024/03/13 06:23:20;;;;;;;38.30;20.45;;;7.50;99.90;;;;;;4993635;28;20499;-71
2024/03/13 06:25:48;;;;;;;46.75;18.40;;;7.50;99.90;;;;;;5009181;28;20069;-72
2024/03/13 06:31:02;;;;;;;35.00;18.63;;;7.60;99.90;;;;;;4994934;28;20053;-71
2024/03/13 06:33:31;;;;;;;39.40;18.58;;;7.70;99.90;;;;;;4994419;28;20097;-71
2024/03/13 06:35:58;;;;;;;47.58;21.67;;;7.70;99.90;;;;;;5009124;28;20050;-71
2024/03/13 06:38:25;;;;;;;43.40;25.40;;;7.70;99.90;;;;;;5025714;28;20052;-71
2024/03/13 06:40:52;;;;;;;40.40;21.48;;;7.80;99.90;;;;;;5009221;28;20053;-71
2024/03/13 06:43:19;;;;;;;22.05;10.57;;;7.70;99.90;;;;;;4994167;28;20096;-71
2024/03/13 06:45:47;;;;;;;45.20;20.65;;;7.80;99.90;;;;;;5009100;28;20061;-71
2024/03/13 06:48:15;;;;;;;40.08;18.30;;;7.80;99.90;;;;;;5009228;28;20125;-71
2024/03/13 06:50:43;;;;;;;34.90;14.57;;;7.90;99.90;;;;;;5009411;28;20097;-71
2024/03/13 06:53:10;;;;;;;33.35;17.67;;;7.90;99.90;;;;;;4993962;28;20050;-72
2024/03/13 06:55:37;;;;;;;27.55;14.38;;;7.90;99.90;;;;;;5025325;28;20052;-71
2024/03/13 06:58:05;;;;;;;50.63;21.33;;;8.00;99.90;;;;;;4994178;28;20070;-71
2024/03/13 07:00:32;;;;;;;27.38;17.38;;;8.00;99.90;;;;;;4993741;28;20455;-72
2024/03/13 07:03:03;;;;;;;37.42;15.00;;;8.00;99.90;;;;;;4993979;28;20045;-71
2024/03/13 07:05:30;;;;;;;64.30;24.30;;;8.10;99.90;;;;;;4993427;28;20125;-71
2024/03/13 07:07:57;;;;;;;35.83;15.38;;;8.10;99.90;;;;;;5008856;28;20042;-71
2024/03/13 07:10:24;;;;;;;27.33;11.82;;;8.10;99.90;;;;;;4993592;28;20488;-71
2024/03/13 07:12:51;;;;;;;34.58;15.98;;;8.10;99.90;;;;;;4992397;28;20137;-71
2024/03/13 07:15:18;;;;;;;49.83;24.15;;;8.10;99.90;;;;;;4992184;28;20471;-72
2024/03/13 07:17:45;;;;;;;24.67;13.75;;;8.10;99.90;;;;;;5008523;28;20188;-72
2024/03/13 07:20:13;;;;;;;30.88;16.13;;;8.20;99.90;;;;;;5024628;28;20435;-71
2024/03/13 07:22:41;;;;;;;29.83;17.08;;;8.20;99.90;;;;;;4992350;28;20046;-71
2024/03/13 07:25:09;;;;;;;34.78;13.13;;;8.20;99.90;;;;;;4993534;28;20080;-72
2024/03/13 07:27:37;;;;;;;38.40;18.17;;;8.30;99.90;;;;;;5008350;28;20042;-72
2024/03/13 07:30:05;;;;;;;64.60;25.58;;;8.30;99.90;;;;;;4992243;28;20427;-71
2024/03/13 07:32:33;;;;;;;24.60;13.27;;;8.30;99.90;;;;;;5024311;28;20141;-72
2024/03/13 07:35:00;;;;;;;36.50;18.08;;;8.40;99.90;;;;;;4993532;28;20068;-71
2024/03/13 07:37:27;;;;;;;40.88;17.80;;;8.40;99.90;;;;;;5024673;28;20038;-72
2024/03/13 07:39:55;;;;;;;38.65;16.23;;;8.50;99.90;;;;;;4993532;28;20050;-72
2024/03/13 07:42:25;;;;;;;26.25;14.82;;;8.50;99.90;;;;;;5008322;28;20142;-72
2024/03/13 07:44:54;;;;;;;31.92;15.68;;;8.50;99.90;;;;;;4991068;28;20047;-71
2024/03/13 07:47:21;;;;;;;39.35;18.52;;;8.50;99.90;;;;;;4992936;28;20049;-71
2024/03/13 07:49:49;;;;;;;38.53;18.88;;;8.60;99.90;;;;;;4993179;28;20042;-71
2024/03/13 07:52:16;;;;;;;50.00;18.45;;;8.70;99.90;;;;;;4993141;28;20495;-71
2024/03/13 07:54:43;;;;;;;32.45;14.88;;;8.70;99.90;;;;;;4992295;28;20100;-71
2024/03/13 07:57:11;;;;;;;25.42;16.10;;;8.70;99.90;;;;;;5005800;28;20463;-72
2024/03/13 07:59:40;;;;;;;37.88;17.48;;;8.70;99.90;;;;;;4992490;28;20121;-72
2024/03/13 08:02:08;;;;;;;31.90;17.70;;;8.80;99.90;;;;;;4989676;28;20053;-72
2024/03/13 08:04:38;;;;;;;23.60;13.18;;;8.80;99.90;;;;;;4991317;28;20073;-72
2024/03/13 08:07:05;;;;;;;35.67;16.25;;;8.80;99.90;;;;;;5008305;28;20289;-72
2024/03/13 08:09:50;;;;;;;30.27;14.45;;;8.80;99.90;;;;;;5005336;28;20030;-72
2024/03/13 08:12:34;;;;;;;36.28;16.58;;;8.90;99.90;;;;;;4974477;28;20041;-72
2024/03/13 08:15:19;;;;;;;27.00;12.13;;;9.00;99.90;;;;;;5007393;28;20122;-72
2024/03/13 08:18:04;;;;;;;30.48;14.90;;;9.00;99.90;;;;;;4994027;28;20377;-72
2024/03/13 08:20:51;;;;;;;26.25;12.70;;;9.00;99.90;;;;;;4991452;28;20042;-72
2024/03/13 08:23:36;;;;;;;32.38;14.77;;;9.10;99.90;;;;;;4993955;28;20030;-71
2024/03/13 08:26:21;;;;;;;42.42;15.80;;;9.10;99.90;;;;;;4977761;28;20034;-72
2024/03/13 08:29:05;;;;;;;25.67;12.55;;;9.10;99.90;;;;;;4977408;28;20037;-72
2024/03/13 08:31:50;;;;;;;29.02;15.27;;;9.20;99.90;;;;;;5007669;28;20022;-72
2024/03/13 08:34:35;;;;;;;31.50;15.70;;;9.20;99.90;;;;;;4993811;28;20179;-72
2024/03/13 08:37:19;;;;;;;31.75;12.82;;;9.20;99.90;;;;;;5004382;28;20025;-72
2024/03/13 08:40:07;;;;;;;22.83;11.52;;;9.20;99.90;;;;;;4977456;28;20034;-72
2024/03/13 08:42:51;;;;;;;34.53;15.02;;;9.30;99.90;;;;;;4977315;28;20039;-72
2024/03/13 08:45:36;;;;;;;33.80;14.02;;;9.30;99.90;;;;;;4990769;28;20058;-71
2024/03/13 08:48:20;;;;;;;36.10;21.83;;;9.40;99.90;;;;;;4995238;28;20184;-71
2024/03/13 08:51:12;;;;;;;27.77;14.77;;;9.40;99.90;;;;;;5011366;28;20022;-71
2024/03/13 08:53:57;;;;;;;32.92;15.60;;;9.40;99.90;;;;;;4981835;28;20066;-71
2024/03/13 08:56:42;;;;;;;20.42;11.27;;;9.50;99.90;;;;;;5008806;28;20034;-72
2024/03/13 08:59:26;;;;;;;22.13;10.90;;;9.60;99.90;;;;;;4982056;28;20061;-71
2024/03/13 09:02:11;;;;;;;24.95;15.23;;;9.60;99.90;;;;;;4980949;28;20476;-71
2024/03/13 09:04:55;;;;;;;23.50;11.65;;;9.60;99.90;;;;;;4995870;28;20050;-71
2024/03/13 09:07:40;;;;;;;20.02;10.90;;;9.60;99.90;;;;;;4995698;28;20387;-71
2024/03/13 09:10:09;;;;;;;26.60;14.75;;;9.70;99.90;;;;;;4994587;28;20042;-72
2024/03/13 09:12:38;;;;;;;32.03;13.95;;;9.80;99.90;;;;;;4995602;28;20049;-71
2024/03/13 09:15:05;;;;;;;21.27;9.52;;;9.80;99.90;;;;;;4994463;28;20053;-71
2024/03/13 09:17:32;;;;;;;23.65;12.25;;;9.80;99.90;;;;;;4994235;28;20101;-71
2024/03/13 09:19:59;;;;;;;20.70;11.65;;;9.90;99.90;;;;;;5003676;28;20464;-72
2024/03/13 09:22:27;;;;;;;27.73;11.88;;;10.00;99.90;;;;;;4995484;28;20476;-72
2024/03/13 09:24:54;;;;;;;13.00;9.32;;;10.00;99.90;;;;;;4995567;28;20392;-71
2024/03/13 09:27:21;;;;;;;18.58;10.15;;;10.10;99.90;;;;;;4994126;28;20070;-72
2024/03/13 09:29:49;;;;;;;11.43;7.15;;;10.20;99.90;;;;;;4980188;28;20129;-72
2024/03/13 09:32:16;;;;;;;13.00;7.03;;;10.30;99.90;;;;;;4988544;28;20084;-72
2024/03/13 09:34:43;;;;;;;14.10;8.75;;;10.30;99.90;;;;;;4995209;28;20042;-72
2024/03/13 09:37:12;;;;;;;18.48;9.65;;;10.40;99.90;;;;;;4995379;28;20077;-72
2024/03/13 09:39:39;;;;;;;18.75;9.77;;;10.50;99.90;;;;;;4995176;28;20046;-72
2024/03/13 09:42:16;;;;;;;17.73;8.95;;;10.60;99.90;;;;;;4995009;28;20046;-73
2024/03/13 09:44:46;;;;;;;10.98;6.57;;;10.70;99.90;;;;;;4993727;28;20042;-72
2024/03/13 09:47:13;;;;;;;15.52;9.10;;;10.80;99.90;;;;;;4995216;28;20038;-72
2024/03/13 09:49:44;;;;;;;12.55;8.18;;;10.90;99.90;;;;;;4977801;28;20061;-72
2024/03/13 09:52:15;;;;;;;11.98;6.72;;;10.90;99.90;;;;;;4977885;28;20571;-73
2024/03/13 09:54:43;;;;;;;14.05;8.95;;;11.00;99.90;;;;;;4995223;28;20511;-72
2024/03/13 09:57:11;;;;;;;10.35;5.95;;;11.00;99.90;;;;;;4994804;28;20112;-72
2024/03/13 09:59:39;;;;;;;9.60;5.53;;;11.00;99.90;;;;;;4994134;28;20058;-72
2024/03/13 10:02:14;;;;;;;11.23;6.47;;;11.00;99.90;;;;;;4993726;28;20042;-73
2024/03/13 10:04:42;;;;;;;14.40;7.90;;;11.10;99.90;;;;;;4993682;28;20069;-72
2024/03/13 10:07:17;;;;;;;12.82;9.65;;;11.10;99.90;;;;;;4994977;28;20502;-72
2024/03/13 10:09:47;;;;;;;12.88;6.88;;;11.20;99.90;;;;;;5009837;28;20057;-72
2024/03/13 10:12:20;;;;;;;8.88;6.03;;;11.20;99.90;;;;;;4994906;28;20060;-72
2024/03/13 10:14:52;;;;;;;14.10;6.78;;;11.30;99.90;;;;;;4977247;28;20050;-72
2024/03/13 10:17:24;;;;;;;13.63;9.05;;;11.30;99.90;;;;;;5010015;28;20077;-72
2024/03/13 10:19:55;;;;;;;10.43;5.60;;;11.40;99.90;;;;;;4993198;28;20042;-72
2024/03/13 10:22:22;;;;;;;11.60;7.10;;;11.40;99.90;;;;;;4993480;28;20085;-73
2024/03/13 10:24:53;;;;;;;14.38;6.80;;;11.50;99.90;;;;;;4994464;28;20053;-73
2024/03/13 10:27:22;;;;;;;13.77;7.00;;;11.50;99.90;;;;;;4993005;28;20042;-73
2024/03/13 10:29:52;;;;;;;12.90;7.40;;;11.60;99.90;;;;;;4993420;28;20121;-72
2024/03/13 10:32:20;;;;;;;16.85;9.45;;;11.70;99.90;;;;;;4992914;28;20408;-72
2024/03/13 10:34:49;;;;;;;15.50;9.10;;;11.70;99.90;;;;;;4992989;28;20048;-73
2024/03/13 10:37:18;;;;;;;15.13;11.52;;;11.80;99.90;;;;;;4993394;28;20613;-73
2024/03/13 10:39:45;;;;;;;11.82;6.60;;;11.70;99.90;;;;;;5009115;28;20149;-72
2024/03/13 10:42:12;;;;;;;14.10;7.80;;;11.60;99.90;;;;;;4993220;28;20517;-73
2024/03/13 10:44:40;;;;;;;12.40;8.25;;;11.60;99.90;;;;;;4993933;28;20046;-73
2024/03/13 10:47:08;;;;;;;17.20;10.18;;;11.60;99.90;;;;;;4993099;28;20046;-72
2024/03/13 10:49:36;;;;;;;16.58;9.80;;;11.60;99.90;;;;;;5009318;28;20077;-73
2024/03/13 10:52:08;;;;;;;15.25;8.27;;;11.70;99.90;;;;;;4994233;28;20081;-72
2024/03/13 10:54:35;;;;;;;12.40;7.75;;;11.70;99.90;;;;;;5009364;28;20057;-72
2024/03/13 10:57:04;;;;;;;16.38;9.50;;;11.70;99.90;;;;;;4992886;28;20472;-73
2024/03/13 10:59:32;;;;;;;16.25;9.00;;;11.70;99.90;;;;;;4992764;28;20128;-73
2024/03/13 11:02:00;;;;;;;11.70;6.85;;;11.70;99.90;;;;;;4976366;28;20046;-74
2024/03/13 11:04:27;;;;;;;14.68;8.65;;;11.70;99.90;;;;;;4994058;28;20125;-73
2024/03/13 11:06:55;;;;;;;18.35;9.38;;;11.70;99.90;;;;;;5008693;28;20042;-73
2024/03/13 11:09:22;;;;;;;15.93;9.23;;;11.70;99.90;;;;;;4992482;28;20045;-72
2024/03/13 11:11:52;;;;;;;21.27;10.90;;;11.70;99.90;;;;;;4993559;28;20411;-73
2024/03/13 11:14:20;;;;;;;;;;;11.80;99.90;;;;;;4992863;28;20090;-73
2024/03/13 11:16:50;;;;;;;14.30;7.68;;;11.80;99.90;;;;;;5008509;28;19926;-72
2024/03/13 11:19:20;;;;;;;17.92;10.90;;;11.80;99.90;;;;;;4992380;28;20389;-73
2024/03/13 11:21:57;;;;;;;18.05;10.55;;;11.80;99.90;;;;;;4993212;28;20178;-72
2024/03/13 11:24:31;;;;;;;15.40;7.90;;;11.90;99.90;;;;;;5024170;28;20046;-73
2024/03/13 11:27:12;;;;;;;24.13;10.10;;;11.90;99.90;;;;;;4993469;28;20042;-73
2024/03/13 11:29:44;;;;;;;19.38;9.48;;;12.00;99.90;;;;;;4993441;28;20064;-72
2024/03/13 11:32:13;;;;;;;17.60;8.93;;;11.90;99.90;;;;;;4992271;28;20078;-72
2024/03/13 11:34:44;;;;;;;16.35;9.23;;;11.90;99.90;;;;;;4992551;28;20042;-73
2024/03/13 11:37:12;;;;;;;18.75;10.40;;;11.90;99.90;;;;;;4993518;28;20108;-73
2024/03/13 11:39:42;;;;;;;16.17;9.77;;;11.90;99.90;;;;;;4991731;28;20105;-73
2024/03/13 11:42:13;;;;;;;16.63;7.50;;;11.90;99.90;;;;;;4992009;28;20046;-73
2024/03/13 11:44:50;;;;;;;15.52;7.13;;;12.00;99.90;;;;;;4991869;28;20039;-73
2024/03/13 11:47:22;;;;;;;;;;;12.00;99.90;;;;;;4993514;28;20496;-72
2024/03/13 11:49:59;;;;;;;16.30;8.68;;;12.10;99.90;;;;;;4992973;28;19921;-73
2024/03/13 11:52:26;;;;;;;19.45;9.13;;;12.00;99.90;;;;;;4993240;28;20074;-73
2024/03/13 11:54:56;;;;;;;13.10;7.30;;;12.00;99.90;;;;;;4993072;28;20527;-72
2024/03/13 11:57:24;;;;;;;12.60;8.23;;;12.00;99.90;;;;;;4992167;28;20046;-72
2024/03/13 11:59:53;;;;;;;14.48;7.82;;;12.00;99.90;;;;;;4992631;28;20058;-73
2024/03/13 12:02:32;;;;;;;14.63;6.85;;;12.00;99.90;;;;;;5008145;28;20070;-73
2024/03/13 12:05:04;;;;;;;15.02;6.78;;;12.00;99.90;;;;;;4991770;28;20046;-72
2024/03/13 12:07:42;;;;;;;9.63;5.88;;;12.10;99.90;;;;;;5008146;28;20042;-72
2024/03/13 12:10:17;;;;;;;14.10;9.82;;;12.10;99.90;;;;;;4992993;28;20118;-72
2024/03/13 12:12:44;;;;;;;14.10;10.30;;;12.10;99.90;;;;;;4992151;28;20039;-72
2024/03/13 12:15:18;;;;;;;12.05;6.63;;;12.10;99.90;;;;;;4992799;28;20050;-72
2024/03/13 12:17:49;;;;;;;13.65;7.05;;;12.10;99.90;;;;;;4992046;28;20074;-72
2024/03/13 12:20:34;;;;;;;12.75;9.35;;;12.20;99.90;;;;;;5008163;28;20436;-72
2024/03/13 12:23:07;;;;;;;14.48;9.85;;;12.20;99.90;;;;;;5011670;28;20046;-72
2024/03/13 12:25:35;;;;;;;13.50;9.20;;;12.20;99.90;;;;;;4995728;28;20411;-73
2024/03/13 12:28:02;;;;;;;18.15;8.57;;;12.20;99.90;;;;;;5011807;28;20164;-72
2024/03/13 12:30:37;;;;;;;12.55;8.02;;;12.20;99.90;;;;;;5011889;28;20050;-72
2024/03/13 12:33:07;;;;;;;16.30;10.20;;;12.30;99.90;;;;;;4996612;28;20038;-73
2024/03/13 12:35:34;;;;;;;14.60;8.02;;;12.30;99.90;;;;;;4995571;28;20047;-73
2024/03/13 12:38:01;;;;;;;17.23;9.07;;;12.20;99.90;;;;;;4996579;28;20439;-72
2024/03/13 12:40:30;;;;;;;15.60;8.38;;;12.20;99.90;;;;;;4996700;28;20113;-73
2024/03/13 12:42:57;;;;;;;13.43;8.52;;;12.30;99.90;;;;;;4996544;28;20051;-72
2024/03/13 12:45:26;;;;;;;11.98;7.95;;;12.30;99.90;;;;;;4995286;28;20076;-72
2024/03/13 12:47:53;;;;;;;19.77;11.77;;;12.30;99.90;;;;;;4996283;28;20391;-73
2024/03/13 12:50:20;;;;;;;19.77;8.98;;;12.30;99.90;;;;;;5011486;28;20047;-72
2024/03/13 12:52:51;;;;;;;17.70;8.93;;;12.30;99.90;;;;;;4996434;28;20047;-73
2024/03/13 12:55:21;;;;;;;10.38;7.10;;;12.40;99.90;;;;;;5011751;28;20039;-72
2024/03/13 12:57:49;;;;;;;15.73;8.20;;;12.30;99.90;;;;;;5011328;28;20137;-73
2024/03/13 13:00:20;;;;;;;16.20;10.98;;;12.40;99.90;;;;;;4994808;28;20447;-73
2024/03/13 13:02:53;;;;;;;12.05;7.60;;;12.40;99.90;;;;;;5011009;28;20053;-72
2024/03/13 13:05:21;;;;;;;12.75;7.75;;;12.30;99.90;;;;;;4995123;28;20126;-72
2024/03/13 13:07:52;;;;;;;25.10;10.60;;;12.30;99.90;;;;;;4994936;28;20124;-72
2024/03/13 13:10:26;;;;;;;21.88;14.00;;;12.30;99.90;;;;;;4994920;28;20408;-72
2024/03/13 13:12:55;;;;;;;18.05;9.63;;;12.30;99.90;;;;;;4996304;28;20450;-72